ADDS METAR Data INFO
IDs: Format: Raw Decoded Include TAF

Data at: 0924 UTC 13 Dec 2017

KAUS 130853Z 23003KT 10SM FEW250 00/M02 A3018 RMK AO2 SLP223 T00001017 58022
KAUS 130753Z 00000KT 10SM FEW250 01/M01 A3021 RMK AO2 SLP233 T00061011
KAUS 130653Z 23003KT 10SM FEW250 01/M01 A3023 RMK AO2 SLP239 T00061006
KAUS 130553Z 00000KT 10SM FEW250 02/01 A3025 RMK AO2 SLP246 T00220006 10100 20006 401780006 58009
KAUS 130453Z 00000KT 10SM FEW250 03/01 A3026 RMK AO2 SLP251 T00280006
KAUS 130353Z 26003KT 10SM FEW250 03/01 A3027 RMK AO2 SLP255 T00330006
KAUS 130253Z 00000KT 10SM CLR 03/00 A3028 RMK AO2 SLP257 T00330000 50002
KAUS 130153Z 22003KT 10SM CLR 05/01 A3028 RMK AO2 SLP257 T00500006
KAUS 130053Z 00000KT 10SM FEW200 06/M01 A3028 RMK AO2 SLP256 T00611006
KAUS 122353Z 33003KT 10SM FEW200 09/M01 A3027 RMK AO2 SLP254 T00891006 10178 20083 55005
KAUS 122253Z 36008KT 10SM FEW200 15/M01 A3027 RMK AO2 SLP251 T01501006
KAUS 122153Z 01011KT 10SM FEW200 17/M02 A3028 RMK AO2 SLP252 T01721017
KAUS 122053Z COR 34012KT 10SM FEW200 18/M02 A3029 RMK AO2 SLP256 T01781017 56033
KAUS 121953Z 35010G18KT 10SM CLR 17/M01 A3030 RMK AO2 SLP260 T01721011
KAUS 121853Z 36013G23KT 10SM CLR 17/M01 A3035 RMK AO2 SLP275 T01671011
KAUS 121753Z 01012KT 10SM FEW200 15/M02 A3039 RMK AO2 SLP290 T01501022 10156 20083 58003
KAUS 121653Z 02015KT 10SM FEW200 14/M02 A3041 RMK AO2 SLP297 T01441022
KAUS 121553Z 01014G20KT 10SM FEW200 13/M02 A3041 RMK AO2 SLP298 T01331017
KAUS 121453Z 35012KT 10SM FEW200 12/M02 A3040 RMK AO2 SLP293 T01171022 51028
KAUS 121353Z 32004KT 10SM FEW200 09/M03 A3037 RMK AO2 SLP287 T00891028
KAUS 121253Z 36008KT 10SM FEW200 09/M03 A3034 RMK AO2 SLP276 T00891033
KAUS 121153Z 36013KT 10SM FEW200 09/M03 A3031 RMK AO2 SLP265 T00941028 10128 20044 51024
KAUS 121053Z 36009KT 10SM SCT200 10/M03 A3029 RMK AO2 SLP256 T01001028
KAUS 120953Z 34010KT 10SM SCT200 12/M01 A3026 RMK AO2 SLP244 T01221011
KAUS 120853Z 33006KT 10SM FEW200 11/02 A3024 RMK AO2 SLP236 T01110017 53008
KAUS 120753Z 26005KT 10SM SCT200 09/02 A3022 RMK AO2 SLP231 T00940022
KAUS 120653Z 23004KT 10SM BKN200 09/03 A3021 RMK AO2 SLP228 T00940028
KAUS 120553Z 25004KT 10SM BKN200 09/03 A3022 RMK AO2 SLP231 T00940028 10167 20072 402501006 51008
KAUS 120453Z 25005KT 10SM BKN200 11/03 A3021 RMK AO2 SLP227 T01110028
KAUS 120353Z 23003KT 10SM BKN200 10/02 A3021 RMK AO2 SLP230 T01000022
KAUS 120253Z 24005KT 10SM FEW150 SCT200 12/02 A3019 RMK AO2 SLP225 T01170022 51005
KAUS 120153Z COR 23003KT 10SM FEW200 SCT250 11/02 A3019 RMK AO2 SLP227 T01060022
KAUS 120053Z 21005KT 10SM SCT200 BKN250 14/02 A3019 RMK AO2 SLP224 T01440017
KAUS 112353Z 20006KT 10SM SCT200 SCT250 16/02 A3018 RMK AO2 SLP222 T01610017 10250 20161 53002
KAUS 112253Z 19009KT 10SM SCT200 SCT250 22/01 A3017 RMK AO2 SLP216 T02170011
KAUS 112153Z 20010KT 10SM SCT200 BKN300 24/M01 A3017 RMK AO2 SLP217 T02391006